Hampton Municipal Airport


Codes: KHPT/HPT
Name: Hampton Municipal Airport
City: Hampton
Country: United States
Elevation: 1176 ft.

Photos at Hampton Municipal Airport


   Photos courtesy of SpottingLog. You can add your own sightings and photos by signing up for a free trial today.



No photos found.

Weather at Hampton Municipal Airport


Time (UTC)DescriptionTempratureWindCloud coverageVisibilityPressureHumidity
23-May-2024 21:00Clear Sky24°C13 mph, S0%10000m1010hPa51%
24-May-2024 00:00Clear Sky22°C11 mph, SE0%10000m1009hPa60%
24-May-2024 03:00Clear Sky16°C9 mph, SE0%10000m1008hPa81%
24-May-2024 06:00Clear Sky16°C13 mph, SE0%10000m1006hPa88%
24-May-2024 09:00Light Rain16°C18 mph, SE45%10000m1003hPa93%
24-May-2024 12:00Moderate Rain17°C16 mph, S73%8806m1003hPa93%
24-May-2024 15:00Moderate Rain18°C13 mph, S100%10000m1001hPa91%
24-May-2024 18:00Moderate Rain19°C16 mph, S100%8888m1000hPa94%
24-May-2024 21:00Light Rain21°C18 mph, W66%10000m1002hPa58%
25-May-2024 00:00Scattered Clouds17°C20 mph, W33%10000m1005hPa65%
25-May-2024 03:00Clear Sky13°C16 mph, NW0%10000m1009hPa67%
25-May-2024 06:00Clear Sky10°C4 mph, NW0%10000m1011hPa81%
25-May-2024 09:00Clear Sky8°C4 mph, W0%10000m1012hPa83%
25-May-2024 12:00Clear Sky10°C4 mph, S0%10000m1012hPa80%
25-May-2024 15:00Few Clouds16°C9 mph, S17%10000m1011hPa57%
25-May-2024 18:00Scattered Clouds20°C9 mph, S25%10000m1011hPa48%
25-May-2024 21:00Overcast Clouds21°C13 mph, SE96%10000m1009hPa52%
26-May-2024 00:00Overcast Clouds18°C13 mph, SE97%10000m1007hPa68%
26-May-2024 03:00Overcast Clouds15°C9 mph, SE100%10000m1007hPa84%
26-May-2024 06:00Light Rain15°C16 mph, SE100%10000m1003hPa82%
26-May-2024 09:00Light Rain14°C13 mph, SE100%10000m1000hPa91%
26-May-2024 12:00Overcast Clouds13°C11 mph, E100%9386m998hPa97%
26-May-2024 15:00Overcast Clouds14°C7 mph, E100%1813m998hPa96%
26-May-2024 18:00Overcast Clouds15°C7 mph, N100%10000m998hPa90%
26-May-2024 21:00Overcast Clouds14°C11 mph, NW100%10000m1000hPa89%
27-May-2024 00:00Overcast Clouds13°C11 mph, NW100%10000m1002hPa87%
27-May-2024 03:00Overcast Clouds12°C11 mph, NW91%10000m1005hPa89%
27-May-2024 06:00Broken Clouds10°C7 mph, NW54%10000m1005hPa96%
27-May-2024 09:00Broken Clouds9°C13 mph, NW75%10000m1006hPa95%
27-May-2024 12:00Broken Clouds10°C11 mph, NW81%10000m1008hPa88%
27-May-2024 15:00Scattered Clouds15°C16 mph, NW32%10000m1009hPa69%
27-May-2024 18:00Scattered Clouds19°C18 mph, N36%10000m1011hPa59%
27-May-2024 21:00Light Rain19°C13 mph, NW92%10000m1011hPa62%
28-May-2024 00:00Broken Clouds19°C7 mph, NW72%10000m1012hPa62%
28-May-2024 03:00Broken Clouds14°C7 mph, NW56%10000m1013hPa74%
28-May-2024 06:00Scattered Clouds13°C7 mph, W43%10000m1013hPa82%
28-May-2024 09:00Clear Sky12°C7 mph, SW8%10000m1012hPa89%
28-May-2024 12:00Light Rain13°C11 mph, W10%10000m1013hPa89%
28-May-2024 15:00Scattered Clouds16°C11 mph, NW37%10000m1012hPa79%
28-May-2024 18:00Light Rain14°C18 mph, NW56%10000m1014hPa73%